Time;durP1;ratioP1;P1;durP2;ratioP2;P2;SDS_P1;SDS_P2;PMS_P1;PMS_P2;Temp;Humidity;BMP_temperature;BMP_pressure;BME280_temperature;BME280_humidity;BME280_pressure;Samples;Min_cycle;Max_cycle;Signal;HPM_P1;HPM_P2
2024/02/13 00:01:18;;;;;;;26.13;10.27;;;6.00;99.90;;;;;;5076192;28;20494;-60
2024/02/13 00:03:45;;;;;;;23.00;11.13;;;6.10;99.90;;;;;;5076120;28;20430;-62
2024/02/13 00:06:12;;;;;;;20.07;12.03;;;6.00;99.90;;;;;;5075936;28;20475;-62
2024/02/13 00:08:42;;;;;;;25.37;10.90;;;6.00;99.90;;;;;;5075887;28;20468;-64
2024/02/13 00:11:10;;;;;;;22.80;11.27;;;6.00;99.90;;;;;;5076379;28;20481;-62
2024/02/13 00:13:39;;;;;;;21.93;12.03;;;6.00;99.90;;;;;;5076102;28;20481;-61
2024/02/13 00:16:09;;;;;;;21.17;12.20;;;6.00;99.90;;;;;;5076221;28;20479;-62
2024/02/13 00:18:36;;;;;;;34.33;13.57;;;6.00;99.90;;;;;;5075791;28;20432;-60
2024/02/13 00:21:03;;;;;;;23.13;10.80;;;6.00;99.90;;;;;;5076074;28;20518;-61
2024/02/13 00:23:30;;;;;;;24.40;12.60;;;6.10;99.90;;;;;;5075791;28;20449;-62
2024/02/13 00:25:57;;;;;;;23.80;11.80;;;6.10;99.90;;;;;;5075760;28;20469;-62
2024/02/13 00:28:24;;;;;;;23.70;11.43;;;6.10;99.90;;;;;;5076499;28;20425;-61
2024/02/13 00:30:51;;;;;;;20.90;10.80;;;6.10;99.90;;;;;;5076021;28;20492;-61
2024/02/13 00:33:19;;;;;;;26.93;12.03;;;6.10;99.90;;;;;;5075941;28;20477;-62
2024/02/13 00:35:46;;;;;;;23.10;11.30;;;6.10;99.90;;;;;;5075635;28;20459;-63
2024/02/13 00:38:14;;;;;;;22.83;11.40;;;6.00;99.90;;;;;;5075548;28;20476;-63
2024/02/13 00:40:41;;;;;;;23.80;10.60;;;6.00;99.90;;;;;;5075620;28;20499;-62
2024/02/13 00:43:08;;;;;;;26.20;12.57;;;6.00;99.90;;;;;;5075594;28;20446;-62
2024/02/13 00:45:35;;;;;;;18.33;10.07;;;6.00;99.90;;;;;;5075767;28;20468;-61
2024/02/13 00:48:02;;;;;;;23.83;12.03;;;6.00;99.90;;;;;;5075971;28;20449;-62
2024/02/13 00:50:31;;;;;;;23.23;13.03;;;6.00;99.90;;;;;;5076149;28;20488;-61
2024/02/13 00:52:59;;;;;;;27.60;13.43;;;6.00;99.90;;;;;;5076055;28;20433;-61
2024/02/13 00:55:26;;;;;;;25.10;11.00;;;6.00;99.90;;;;;;5076511;28;20453;-63
2024/02/13 00:57:54;;;;;;;20.60;10.90;;;6.00;99.90;;;;;;5076846;28;20473;-61
2024/02/13 01:00:21;;;;;;;20.43;10.30;;;6.10;99.90;;;;;;5076501;28;20463;-62
2024/02/13 01:02:47;;;;;;;18.87;10.67;;;6.10;99.90;;;;;;5076193;28;20469;-61
2024/02/13 01:05:17;;;;;;;22.70;10.83;;;6.10;99.90;;;;;;5076487;28;20431;-60
2024/02/13 01:07:46;;;;;;;19.83;9.97;;;6.10;99.90;;;;;;5076437;28;20473;-62
2024/02/13 01:10:15;;;;;;;21.50;11.33;;;6.00;99.90;;;;;;5075586;28;20483;-62
2024/02/13 01:12:42;;;;;;;24.50;13.23;;;6.00;99.90;;;;;;5075544;28;20463;-62
2024/02/13 01:15:10;;;;;;;22.10;10.87;;;5.90;99.90;;;;;;5075521;28;20499;-62
2024/02/13 01:17:36;;;;;;;16.77;9.97;;;5.90;99.90;;;;;;5076321;28;20482;-61
2024/02/13 01:20:04;;;;;;;18.27;10.10;;;5.90;99.90;;;;;;5075872;28;20450;-61
2024/02/13 01:22:31;;;;;;;14.83;8.93;;;5.90;99.90;;;;;;5075715;28;20480;-62
2024/02/13 01:25:05;;;;;;;16.50;9.10;;;5.90;99.90;;;;;;5075452;28;20444;-60
2024/02/13 01:27:31;;;;;;;19.60;11.07;;;5.80;99.90;;;;;;5075939;28;20483;-62
2024/02/13 01:29:59;;;;;;;20.20;9.93;;;5.80;99.90;;;;;;5075645;28;20421;-60
2024/02/13 01:32:28;;;;;;;16.27;9.37;;;5.80;99.90;;;;;;5078599;28;20432;-61
2024/02/13 01:34:54;;;;;;;14.70;8.27;;;5.70;99.90;;;;;;5077329;28;20452;-62
2024/02/13 01:37:21;;;;;;;23.53;10.03;;;5.80;99.90;;;;;;5076405;28;20448;-61
2024/02/13 01:39:48;;;;;;;20.97;9.80;;;5.80;99.90;;;;;;5077416;28;20464;-62
2024/02/13 01:42:17;;;;;;;15.43;8.37;;;5.80;99.90;;;;;;5077156;28;20452;-62
2024/02/13 01:44:43;;;;;;;19.07;9.27;;;5.70;99.90;;;;;;5070669;28;20526;-61
2024/02/13 01:47:11;;;;;;;23.47;10.40;;;5.80;99.90;;;;;;5065567;28;20445;-62
2024/02/13 01:49:38;;;;;;;17.50;9.40;;;5.80;99.90;;;;;;5066465;28;20490;-61
2024/02/13 01:52:05;;;;;;;18.77;10.37;;;5.90;99.90;;;;;;5067153;28;20513;-61
2024/02/13 01:54:33;;;;;;;24.27;9.50;;;5.90;99.90;;;;;;5067282;28;20505;-62
2024/02/13 01:57:02;;;;;;;22.57;9.97;;;5.90;99.90;;;;;;5066576;28;20465;-62
2024/02/13 01:59:38;;;;;;;16.23;9.80;;;5.90;99.90;;;;;;5066766;28;20465;-62
2024/02/13 02:02:08;;;;;;;17.83;9.17;;;5.90;99.90;;;;;;5067475;28;20964;-62
2024/02/13 02:04:39;;;;;;;21.93;10.77;;;5.90;99.90;;;;;;5066591;28;20444;-62
2024/02/13 02:07:08;;;;;;;18.57;9.50;;;6.00;99.90;;;;;;5067075;28;20492;-60
2024/02/13 02:09:34;;;;;;;16.20;9.80;;;6.00;99.90;;;;;;5065611;28;20444;-62
2024/02/13 02:12:04;;;;;;;24.13;11.40;;;6.00;99.90;;;;;;5066148;28;20504;-62
2024/02/13 02:14:32;;;;;;;17.70;9.63;;;6.00;99.90;;;;;;5073219;28;20546;-62
2024/02/13 02:17:10;;;;;;;19.30;10.47;;;6.00;99.90;;;;;;5078033;28;20468;-62
2024/02/13 02:19:37;;;;;;;17.67;8.40;;;6.00;99.90;;;;;;5075629;28;20861;-61
2024/02/13 02:22:07;;;;;;;19.80;9.30;;;6.00;99.90;;;;;;5075289;28;20449;-63
2024/02/13 02:24:34;;;;;;;17.30;7.90;;;6.00;99.90;;;;;;5069110;28;20563;-62
2024/02/13 02:27:03;;;;;;;16.43;8.43;;;6.00;99.90;;;;;;5064322;28;20446;-62
2024/02/13 02:29:30;;;;;;;21.03;9.03;;;6.00;99.90;;;;;;5064616;28;20445;-62
2024/02/13 02:31:57;;;;;;;15.70;8.73;;;6.00;99.90;;;;;;5063121;28;20500;-62
2024/02/13 02:34:24;;;;;;;17.23;9.63;;;6.00;99.90;;;;;;5062615;28;20481;-60
2024/02/13 02:36:52;;;;;;;15.27;9.17;;;6.00;99.90;;;;;;5061238;28;20489;-61
2024/02/13 02:39:19;;;;;;;15.90;9.00;;;6.00;99.90;;;;;;5061372;28;20448;-62
2024/02/13 02:41:46;;;;;;;23.03;9.23;;;6.00;99.90;;;;;;5058342;28;20495;-61
2024/02/13 02:44:14;;;;;;;14.63;8.40;;;5.90;99.90;;;;;;5058080;28;20456;-61
2024/02/13 02:46:41;;;;;;;16.30;7.50;;;5.90;99.90;;;;;;5057047;28;20511;-60
2024/02/13 02:49:09;;;;;;;14.07;8.83;;;6.00;99.90;;;;;;5057103;28;20468;-60
2024/02/13 02:51:36;;;;;;;15.40;8.40;;;6.00;99.90;;;;;;5056706;28;20990;-61
2024/02/13 02:54:03;;;;;;;15.00;7.60;;;6.00;99.90;;;;;;5057044;28;20524;-61
2024/02/13 02:56:30;;;;;;;11.70;7.80;;;6.00;99.90;;;;;;5057091;28;20449;-61
2024/02/13 02:58:57;;;;;;;11.57;6.90;;;6.00;99.90;;;;;;5056940;28;20445;-61
2024/02/13 03:01:25;;;;;;;12.97;6.80;;;6.10;99.90;;;;;;5056859;28;20468;-61
2024/02/13 03:03:56;;;;;;;10.10;6.83;;;6.10;99.90;;;;;;5056712;28;20488;-62
2024/02/13 03:06:22;;;;;;;13.47;7.10;;;6.10;99.90;;;;;;5056883;28;20434;-62
2024/02/13 03:08:49;;;;;;;13.40;7.27;;;6.10;99.90;;;;;;5056644;28;20460;-62
2024/02/13 03:11:21;;;;;;;17.43;7.67;;;6.10;99.90;;;;;;5055714;28;20481;-60
2024/02/13 03:13:48;;;;;;;10.13;7.10;;;6.10;99.90;;;;;;5056671;28;20819;-61
2024/02/13 03:16:14;;;;;;;12.77;5.90;;;6.10;99.90;;;;;;5056526;28;20445;-62
2024/02/13 03:18:43;;;;;;;13.80;6.17;;;6.10;99.90;;;;;;5056511;28;20473;-60
2024/02/13 03:21:10;;;;;;;9.40;5.67;;;6.10;99.90;;;;;;5056461;28;20790;-61
2024/02/13 03:23:38;;;;;;;12.20;6.70;;;6.10;99.90;;;;;;5056620;28;20446;-62
2024/02/13 03:26:05;;;;;;;11.47;6.13;;;6.10;99.90;;;;;;5056312;28;20780;-61
2024/02/13 03:28:31;;;;;;;10.47;5.53;;;6.00;99.90;;;;;;5056418;28;20453;-62
2024/02/13 03:31:00;;;;;;;11.63;7.17;;;6.10;99.90;;;;;;5057387;28;20571;-61
2024/02/13 03:33:27;;;;;;;9.67;6.20;;;6.10;99.90;;;;;;5056341;28;20429;-61
2024/02/13 03:35:55;;;;;;;11.80;6.60;;;6.10;99.90;;;;;;5055936;28;20536;-62
2024/02/13 03:38:22;;;;;;;9.00;5.83;;;6.20;99.90;;;;;;5055777;28;20458;-61
2024/02/13 03:40:49;;;;;;;12.60;5.80;;;6.20;99.90;;;;;;5056164;28;20461;-62
2024/02/13 03:43:15;;;;;;;18.83;6.10;;;6.20;99.90;;;;;;5055667;28;20469;-63
2024/02/13 03:45:42;;;;;;;10.97;5.90;;;6.10;99.90;;;;;;5055714;28;20475;-62
2024/02/13 03:48:09;;;;;;;14.63;6.43;;;6.10;99.90;;;;;;5055601;28;20504;-60
2024/02/13 03:50:36;;;;;;;9.60;5.20;;;6.10;99.90;;;;;;5055803;28;20441;-61
2024/02/13 03:53:05;;;;;;;10.90;5.67;;;6.20;99.90;;;;;;5055681;28;20485;-62
2024/02/13 03:55:35;;;;;;;11.80;4.83;;;6.10;99.90;;;;;;5055178;28;20779;-61
2024/02/13 03:58:02;;;;;;;10.67;5.20;;;6.10;99.90;;;;;;5055438;28;21005;-61
2024/02/13 04:00:29;;;;;;;12.03;5.97;;;6.10;99.90;;;;;;5055348;28;20497;-62
2024/02/13 04:02:56;;;;;;;9.33;4.50;;;6.20;99.90;;;;;;5055414;28;20912;-62
2024/02/13 04:05:24;;;;;;;7.77;5.00;;;6.10;99.90;;;;;;5055561;28;20474;-61
2024/02/13 04:07:51;;;;;;;10.27;4.80;;;6.20;99.90;;;;;;5055620;28;20476;-61
2024/02/13 04:10:19;;;;;;;8.53;5.17;;;6.10;99.90;;;;;;5055475;28;20440;-60
2024/02/13 04:12:46;;;;;;;9.60;5.83;;;6.20;99.90;;;;;;5055912;28;20555;-60
2024/02/13 04:15:14;;;;;;;8.40;4.40;;;6.20;99.90;;;;;;5055870;28;20441;-63
2024/02/13 04:17:40;;;;;;;5.20;3.43;;;6.20;99.90;;;;;;5055659;28;20441;-61
2024/02/13 04:20:08;;;;;;;7.73;4.17;;;6.20;99.90;;;;;;5055372;28;20497;-62
2024/02/13 04:22:35;;;;;;;9.87;3.97;;;6.20;99.90;;;;;;5054979;28;20471;-61
2024/02/13 04:25:03;;;;;;;4.70;3.37;;;6.10;99.90;;;;;;5056060;28;20449;-61
2024/02/13 04:27:31;;;;;;;7.60;4.33;;;6.20;99.90;;;;;;5055143;28;20468;-61
2024/02/13 04:29:58;;;;;;;7.47;3.13;;;6.20;99.90;;;;;;5055394;28;20479;-62
2024/02/13 04:32:25;;;;;;;7.40;2.97;;;6.20;99.90;;;;;;5054817;28;20521;-61
2024/02/13 04:34:51;;;;;;;3.50;3.00;;;6.20;99.90;;;;;;5055105;28;20447;-62
2024/02/13 04:37:18;;;;;;;7.73;3.30;;;6.20;99.90;;;;;;5054918;28;20543;-61
2024/02/13 04:39:46;;;;;;;13.53;4.03;;;6.20;99.90;;;;;;5054986;28;20465;-62
2024/02/13 04:42:15;;;;;;;4.20;2.90;;;6.20;99.90;;;;;;5055027;28;20536;-62
2024/02/13 04:44:43;;;;;;;6.73;3.40;;;6.10;99.90;;;;;;5054618;28;20572;-60
2024/02/13 04:47:10;;;;;;;4.20;3.10;;;6.10;99.90;;;;;;5054983;28;20830;-61
2024/02/13 04:49:37;;;;;;;7.60;3.23;;;6.10;99.90;;;;;;5054567;28;20480;-59
2024/02/13 04:52:04;;;;;;;5.50;3.67;;;6.10;99.90;;;;;;5055013;28;20481;-60
2024/02/13 04:54:32;;;;;;;8.00;2.33;;;6.00;99.90;;;;;;5054847;28;20523;-61
2024/02/13 04:56:59;;;;;;;6.07;3.07;;;6.00;99.90;;;;;;5054692;28;20496;-61
2024/02/13 04:59:27;;;;;;;4.40;2.90;;;5.90;99.90;;;;;;5054805;28;20445;-60
2024/02/13 05:01:56;;;;;;;6.73;3.17;;;5.90;99.90;;;;;;5054368;28;20508;-61
2024/02/13 05:07:23;;;;;;;7.10;3.23;;;5.90;99.90;;;;;;5054720;28;20506;-61
2024/02/13 05:09:50;;;;;;;5.23;3.00;;;5.80;99.90;;;;;;5054748;28;20437;-60
2024/02/13 05:12:16;;;;;;;6.37;4.20;;;5.80;99.90;;;;;;5054609;28;20885;-61
2024/02/13 05:14:43;;;;;;;7.73;2.90;;;5.80;99.90;;;;;;5054703;28;20467;-62
2024/02/13 05:17:12;;;;;;;5.93;3.60;;;5.80;99.90;;;;;;5054628;28;20516;-62
2024/02/13 05:19:39;;;;;;;8.53;3.70;;;5.80;99.90;;;;;;5054319;28;20446;-62
2024/02/13 05:22:06;;;;;;;5.13;3.23;;;5.90;99.90;;;;;;5054302;28;20884;-60
2024/02/13 05:24:35;;;;;;;4.70;2.93;;;5.80;99.90;;;;;;5054868;28;20492;-61
2024/02/13 05:27:02;;;;;;;4.20;2.90;;;5.80;99.90;;;;;;5054171;28;20453;-62
2024/02/13 05:29:29;;;;;;;4.80;3.07;;;5.70;99.90;;;;;;5054462;28;20853;-61
2024/02/13 05:31:56;;;;;;;6.90;3.80;;;5.70;99.90;;;;;;5054177;28;20508;-60
2024/02/13 05:34:25;;;;;;;6.73;3.20;;;5.70;99.90;;;;;;5054085;28;20445;-61
2024/02/13 05:36:52;;;;;;;3.87;3.13;;;5.70;99.90;;;;;;5054263;28;20876;-62
2024/02/13 05:39:19;;;;;;;5.20;3.23;;;5.70;99.90;;;;;;5054409;28;20467;-62
2024/02/13 05:41:45;;;;;;;11.67;4.80;;;5.70;99.90;;;;;;5053995;28;20560;-61
2024/02/13 05:44:12;;;;;;;5.30;2.97;;;5.70;99.90;;;;;;5054067;28;20515;-61
2024/02/13 05:46:39;;;;;;;8.50;5.00;;;5.70;99.90;;;;;;5053959;28;20496;-61
2024/02/13 05:49:06;;;;;;;5.87;3.60;;;5.70;99.90;;;;;;5055230;28;20505;-62
2024/02/13 05:51:34;;;;;;;5.47;3.10;;;5.70;99.90;;;;;;5054228;28;20571;-60
2024/02/13 05:54:04;;;;;;;9.33;4.30;;;5.80;99.90;;;;;;5054354;28;20440;-61
2024/02/13 05:56:31;;;;;;;5.17;2.90;;;5.80;99.90;;;;;;5054611;28;20446;-62
2024/02/13 05:59:00;;;;;;;8.13;5.00;;;5.80;99.90;;;;;;5054330;28;20527;-63
2024/02/13 06:01:27;;;;;;;7.60;3.80;;;5.70;99.90;;;;;;5053870;28;20491;-62
2024/02/13 06:03:57;;;;;;;8.33;4.93;;;5.70;99.90;;;;;;5053830;28;20476;-61
2024/02/13 06:06:25;;;;;;;5.23;4.03;;;5.70;99.90;;;;;;5054415;28;20483;-61
2024/02/13 06:08:53;;;;;;;8.57;4.57;;;5.60;99.90;;;;;;5054080;28;20487;-61
2024/02/13 06:11:20;;;;;;;9.17;4.23;;;5.70;99.90;;;;;;5053995;28;20939;-60
2024/02/13 06:13:49;;;;;;;8.33;4.70;;;5.60;99.90;;;;;;5053707;28;20477;-61
2024/02/13 06:16:17;;;;;;;7.00;4.30;;;5.70;99.90;;;;;;5054299;28;20797;-60
2024/02/13 06:18:46;;;;;;;10.40;6.07;;;5.70;99.90;;;;;;5057130;28;20450;-60
2024/02/13 06:21:13;;;;;;;8.57;4.83;;;5.60;99.90;;;;;;5057612;28;20448;-61
2024/02/13 06:23:41;;;;;;;9.13;5.20;;;5.70;99.90;;;;;;5057607;28;20446;-61
2024/02/13 06:26:16;;;;;;;5.53;4.40;;;5.70;99.90;;;;;;5057331;28;20535;-61
2024/02/13 06:28:42;;;;;;;9.73;4.90;;;5.70;99.90;;;;;;5057187;28;20524;-62
2024/02/13 06:31:09;;;;;;;8.80;5.00;;;5.70;99.90;;;;;;5057262;28;20968;-62
2024/02/13 06:33:47;;;;;;;8.60;4.60;;;5.70;99.90;;;;;;5057851;28;20825;-61
2024/02/13 06:36:26;;;;;;;;;;;;;;;;;;;;;
2024/02/13 06:39:35;;;;;;;11.70;5.20;;;5.80;99.90;;;;;;5055590;28;20450;-62
2024/02/13 06:42:09;;;;;;;8.30;4.83;;;5.90;99.90;;;;;;4987114;28;20738;-61
2024/02/13 06:44:40;;;;;;;8.73;5.43;;;5.90;99.90;;;;;;5056986;28;20475;-60
2024/02/13 06:47:08;;;;;;;12.23;5.50;;;5.90;99.90;;;;;;5057199;28;20441;-62
2024/02/13 06:49:35;;;;;;;10.73;5.77;;;6.00;99.90;;;;;;5057109;28;20924;-61
2024/02/13 06:52:03;;;;;;;11.60;7.03;;;6.00;99.90;;;;;;5057580;28;20557;-62
2024/02/13 06:54:30;;;;;;;9.03;6.27;;;6.10;99.90;;;;;;5058062;28;20548;-61
2024/02/13 06:56:57;;;;;;;17.80;5.70;;;6.10;99.90;;;;;;5056959;28;20481;-60
2024/02/13 06:59:27;;;;;;;7.20;5.20;;;6.20;99.90;;;;;;5056945;28;20480;-62
2024/02/13 07:01:54;;;;;;;8.27;5.27;;;6.10;99.90;;;;;;5056904;28;20448;-61
2024/02/13 07:04:21;;;;;;;10.00;5.83;;;6.20;99.90;;;;;;5056593;28;20521;-62
2024/02/13 07:06:47;;;;;;;9.40;5.57;;;6.20;99.90;;;;;;5056859;28;20500;-60
2024/02/13 07:09:15;;;;;;;8.10;4.97;;;6.20;99.90;;;;;;5056407;28;20953;-61
2024/02/13 07:11:42;;;;;;;9.73;5.90;;;6.20;99.90;;;;;;5056329;28;20915;-62
2024/02/13 07:14:10;;;;;;;10.50;7.00;;;6.20;99.90;;;;;;5056596;28;20497;-61
2024/02/13 07:16:39;;;;;;;10.37;6.23;;;6.20;99.90;;;;;;5056416;28;20545;-62
2024/02/13 07:19:06;;;;;;;9.33;6.60;;;6.20;99.90;;;;;;5056159;28;20476;-59
2024/02/13 07:21:33;;;;;;;9.20;5.50;;;6.30;99.90;;;;;;5056525;28;20536;-60
2024/02/13 07:24:00;;;;;;;9.47;6.53;;;6.30;99.90;;;;;;5056426;28;20470;-62
2024/02/13 07:26:27;;;;;;;14.03;5.80;;;6.30;99.90;;;;;;5056422;28;20482;-60
2024/02/13 07:28:54;;;;;;;12.37;5.67;;;6.30;99.90;;;;;;5056001;28;20501;-61
2024/02/13 07:31:21;;;;;;;9.07;6.03;;;6.40;99.90;;;;;;5056335;28;20472;-62
2024/02/13 07:33:49;;;;;;;9.60;7.00;;;6.40;99.90;;;;;;5056156;28;20580;-62
2024/02/13 07:36:17;;;;;;;9.20;5.60;;;6.50;99.90;;;;;;5056140;28;20472;-61
2024/02/13 07:38:56;;;;;;;8.63;5.40;;;6.50;99.90;;;;;;5056154;28;20468;-59
2024/02/13 07:41:23;;;;;;;9.30;4.97;;;6.50;99.90;;;;;;5055959;28;20520;-62
2024/02/13 07:43:52;;;;;;;12.03;6.33;;;6.60;99.90;;;;;;5055685;28;20461;-61
2024/02/13 07:46:19;;;;;;;11.30;5.30;;;6.50;99.90;;;;;;5055162;28;20536;-62
2024/02/13 07:48:48;;;;;;;9.90;5.80;;;6.60;99.90;;;;;;5055854;28;20454;-62
2024/02/13 07:51:18;;;;;;;9.73;5.60;;;6.70;99.90;;;;;;5056022;28;20437;-61
2024/02/13 07:53:45;;;;;;;9.47;5.50;;;6.70;99.90;;;;;;5055707;28;20481;-62
2024/02/13 07:56:12;;;;;;;11.67;6.53;;;6.80;99.90;;;;;;5055751;28;20434;-61
2024/02/13 07:58:39;;;;;;;10.87;5.93;;;6.70;99.90;;;;;;5055751;28;20445;-62
2024/02/13 08:01:07;;;;;;;11.63;7.30;;;6.70;99.90;;;;;;5055437;28;20445;-63
2024/02/13 08:03:36;;;;;;;15.93;6.57;;;6.80;99.90;;;;;;5055742;28;20441;-61
2024/02/13 08:06:03;;;;;;;8.90;5.13;;;6.70;99.90;;;;;;5055731;28;20541;-62
2024/02/13 08:08:31;;;;;;;10.27;6.00;;;6.70;99.90;;;;;;5055292;28;20449;-61
2024/02/13 08:10:59;;;;;;;11.10;6.43;;;6.80;99.90;;;;;;5055548;28;20441;-61
2024/02/13 08:13:25;;;;;;;10.60;6.10;;;6.90;99.90;;;;;;5055511;28;20512;-60
2024/02/13 08:15:52;;;;;;;11.83;6.63;;;7.00;99.90;;;;;;5055519;28;20504;-62
2024/02/13 08:18:19;;;;;;;10.90;5.20;;;7.10;99.90;;;;;;5055657;28;20452;-62
2024/02/13 08:20:46;;;;;;;10.60;6.50;;;7.10;99.90;;;;;;5055416;28;20519;-62
2024/02/13 08:23:13;;;;;;;13.17;6.23;;;7.10;99.90;;;;;;5055492;28;20519;-62
2024/02/13 08:25:42;;;;;;;11.40;5.60;;;7.10;99.90;;;;;;5055243;28;20539;-62
2024/02/13 08:28:10;;;;;;;10.70;7.63;;;7.10;99.90;;;;;;5055215;28;20445;-61
2024/02/13 08:30:36;;;;;;;9.57;7.30;;;7.10;99.90;;;;;;5054899;28;20538;-62
2024/02/13 08:33:04;;;;;;;10.07;6.10;;;7.10;99.90;;;;;;5054837;28;20485;-61
2024/02/13 08:35:31;;;;;;;12.20;6.53;;;7.00;99.90;;;;;;5055033;28;20473;-60
2024/02/13 08:37:58;;;;;;;9.20;5.90;;;7.00;99.90;;;;;;5054868;28;20483;-62
2024/02/13 08:40:51;;;;;;;10.23;5.43;;;6.90;99.90;;;;;;5054567;28;20561;-60
2024/02/13 08:43:19;;;;;;;12.63;5.80;;;6.90;99.90;;;;;;5046068;28;20465;-61
2024/02/13 08:45:46;;;;;;;6.73;4.60;;;6.80;99.90;;;;;;5054616;28;20465;-61
2024/02/13 08:48:13;;;;;;;11.30;6.20;;;6.80;99.90;;;;;;5055032;28;20828;-62
2024/02/13 08:50:40;;;;;;;7.20;5.43;;;6.90;99.90;;;;;;5054855;28;20477;-62
2024/02/13 08:53:09;;;;;;;8.63;5.90;;;7.00;99.90;;;;;;5060502;28;20489;-63
2024/02/13 08:55:36;;;;;;;11.10;5.57;;;7.50;99.90;;;;;;5075824;28;20469;-65
2024/02/13 08:58:04;;;;;;;10.20;5.77;;;7.80;99.90;;;;;;5075462;28;20434;-63
2024/02/13 09:00:31;;;;;;;10.03;6.07;;;8.20;99.90;;;;;;5073802;28;20471;-64
2024/02/13 09:02:58;;;;;;;7.70;5.00;;;8.70;99.90;;;;;;5063318;28;20457;-60
2024/02/13 09:05:26;;;;;;;9.40;6.03;;;8.90;99.90;;;;;;5057885;28;20463;-61
2024/02/13 09:07:53;;;;;;;8.33;6.00;;;8.70;99.90;;;;;;5058040;28;20466;-61
2024/02/13 09:10:20;;;;;;;13.60;6.00;;;8.40;99.90;;;;;;5057775;28;20977;-60
2024/02/13 09:12:47;;;;;;;11.13;5.93;;;8.10;99.90;;;;;;5055773;28;20869;-62
2024/02/13 09:15:15;;;;;;;8.23;5.23;;;7.90;99.90;;;;;;5055830;28;20454;-60
2024/02/13 09:17:43;;;;;;;6.27;4.60;;;7.80;99.90;;;;;;5054910;28;20445;-59
2024/02/13 09:20:14;;;;;;;13.83;7.20;;;7.60;99.90;;;;;;5055299;28;20508;-59
2024/02/13 09:22:44;;;;;;;10.10;5.00;;;7.50;99.90;;;;;;5055344;28;20532;-61
2024/02/13 09:25:12;;;;;;;5.63;4.37;;;7.50;99.90;;;;;;5055252;28;20512;-60
2024/02/13 09:27:39;;;;;;;7.57;5.50;;;7.50;99.90;;;;;;5055607;28;20486;-61
2024/02/13 09:30:07;;;;;;;8.40;5.97;;;7.50;99.90;;;;;;5055086;28;20474;-60
2024/02/13 09:32:36;;;;;;;10.13;4.50;;;7.50;99.90;;;;;;5054764;28;20558;-61
2024/02/13 09:35:04;;;;;;;11.60;5.00;;;7.60;99.90;;;;;;5055226;28;20755;-61
2024/02/13 09:37:31;;;;;;;7.53;4.23;;;7.70;99.90;;;;;;5055013;28;20949;-64
2024/02/13 09:39:58;;;;;;;7.63;5.57;;;7.70;99.90;;;;;;5055219;28;20477;-60
2024/02/13 09:42:27;;;;;;;12.33;4.70;;;7.80;99.90;;;;;;5056962;28;20474;-61
2024/02/13 09:44:53;;;;;;;10.37;4.90;;;7.80;99.90;;;;;;5056828;28;20459;-62
2024/02/13 09:47:21;;;;;;;7.70;4.80;;;7.80;99.90;;;;;;5057222;28;20561;-63
2024/02/13 09:49:51;;;;;;;9.43;4.27;;;7.90;99.90;;;;;;5056805;28;20450;-62
2024/02/13 09:52:19;;;;;;;8.87;4.43;;;7.90;99.90;;;;;;5058108;28;20833;-62
2024/02/13 09:54:49;;;;;;;5.80;3.50;;;8.00;99.90;;;;;;5060996;28;20472;-62
2024/02/13 09:57:17;;;;;;;6.23;3.70;;;8.00;99.90;;;;;;5061256;28;20542;-61
2024/02/13 09:59:44;;;;;;;3.50;3.20;;;8.10;99.90;;;;;;5061171;28;20466;-62
2024/02/13 10:02:12;;;;;;;7.40;3.90;;;8.20;99.90;;;;;;5063389;28;20479;-62
2024/02/13 10:04:41;;;;;;;4.97;3.50;;;8.30;99.90;;;;;;5063084;28;20468;-62
2024/02/13 10:07:09;;;;;;;7.90;4.10;;;8.50;99.90;;;;;;5062689;28;20473;-62
2024/02/13 10:09:39;;;;;;;5.40;3.90;;;8.60;99.90;;;;;;5062840;28;20508;-62
2024/02/13 10:12:12;;;;;;;5.00;3.23;;;8.80;99.90;;;;;;5062628;28;20524;-61
2024/02/13 10:14:39;;;;;;;5.27;3.40;;;8.90;99.90;;;;;;5062800;28;20558;-61
2024/02/13 10:17:11;;;;;;;6.53;3.87;;;8.90;99.90;;;;;;5061785;28;20802;-61
2024/02/13 10:19:38;;;;;;;5.70;3.10;;;9.00;99.90;;;;;;5062298;28;20447;-57
2024/02/13 10:22:06;;;;;;;6.70;2.90;;;9.00;99.90;;;;;;5062496;28;20462;-62
2024/02/13 10:24:36;;;;;;;6.20;3.43;;;8.90;99.90;;;;;;5061588;28;20476;-62
2024/02/13 10:27:05;;;;;;;5.73;2.83;;;8.80;99.90;;;;;;5062499;28;20791;-61
2024/02/13 10:29:41;;;;;;;6.90;3.70;;;8.60;99.90;;;;;;5061720;28;20469;-59
2024/02/13 10:32:08;;;;;;;6.37;3.03;;;8.50;99.90;;;;;;5062852;28;20869;-65
2024/02/13 10:34:39;;;;;;;5.13;3.23;;;8.70;99.90;;;;;;5061412;28;20496;-63
2024/02/13 10:37:08;;;;;;;8.43;3.30;;;8.90;99.90;;;;;;5061659;28;20485;-62
2024/02/13 10:39:37;;;;;;;4.47;2.87;;;8.90;99.90;;;;;;5060784;28;20467;-62
2024/02/13 10:42:09;;;;;;;5.27;2.60;;;8.90;99.90;;;;;;5061147;28;20617;-62
2024/02/13 10:44:43;;;;;;;11.50;2.93;;;8.90;99.90;;;;;;5061709;28;20499;-64
2024/02/13 10:47:14;;;;;;;4.10;2.40;;;8.80;99.90;;;;;;5061637;28;20434;-63
2024/02/13 10:49:50;;;;;;;4.17;2.23;;;8.80;99.90;;;;;;5061557;28;20462;-64
2024/02/13 10:52:18;;;;;;;6.87;2.00;;;8.80;99.90;;;;;;5061067;28;20446;-64
2024/02/13 10:54:49;;;;;;;3.97;2.67;;;8.80;99.90;;;;;;5061052;28;20562;-61
2024/02/13 10:57:16;;;;;;;8.47;1.80;;;8.90;99.90;;;;;;5060724;28;20463;-62
2024/02/13 10:59:44;;;;;;;5.30;2.00;;;8.90;99.90;;;;;;5060977;28;20471;-62
2024/02/13 11:02:15;;;;;;;3.03;1.90;;;8.90;99.90;;;;;;5061008;28;20469;-63
2024/02/13 11:04:46;;;;;;;2.90;1.93;;;8.90;99.90;;;;;;5060535;28;20465;-62
2024/02/13 11:07:13;;;;;;;3.43;2.10;;;8.90;99.90;;;;;;5060569;28;20427;-62
2024/02/13 11:09:40;;;;;;;5.07;2.37;;;8.90;99.90;;;;;;5060527;28;20471;-62
2024/02/13 11:12:10;;;;;;;3.53;1.97;;;9.00;99.90;;;;;;5060525;28;20447;-63
2024/02/13 11:14:37;;;;;;;4.63;2.10;;;9.00;99.90;;;;;;5060707;28;20486;-61
2024/02/13 11:17:09;;;;;;;6.40;1.97;;;9.10;99.90;;;;;;5060134;28;20484;-64
2024/02/13 11:19:40;;;;;;;4.73;2.30;;;9.20;99.90;;;;;;5060397;28;20466;-63
2024/02/13 11:22:09;;;;;;;2.07;1.77;;;9.20;99.90;;;;;;5060945;28;20433;-63
2024/02/13 11:24:51;;;;;;;3.03;1.80;;;9.30;99.90;;;;;;5058934;28;20923;-64
2024/02/13 11:27:25;;;;;;;2.40;1.80;;;9.40;99.90;;;;;;5058008;28;20493;-62
2024/02/13 11:30:00;;;;;;;2.93;1.87;;;9.40;99.90;;;;;;5057878;28;20466;-64
2024/02/13 11:32:29;;;;;;;2.10;1.57;;;9.40;99.90;;;;;;5058176;28;20493;-62
2024/02/13 11:35:01;;;;;;;1.83;1.60;;;9.50;99.90;;;;;;5056044;28;20539;-63
2024/02/13 11:37:28;;;;;;;7.40;1.60;;;9.60;99.90;;;;;;5055772;28;20455;-61
2024/02/13 11:39:57;;;;;;;5.00;1.83;;;9.70;99.90;;;;;;5056563;28;20786;-63
2024/02/13 11:42:33;;;;;;;3.53;1.77;;;9.70;99.90;;;;;;5056224;28;20435;-63
2024/02/13 11:45:01;;;;;;;3.40;1.50;;;9.70;99.90;;;;;;5056100;28;20532;-62
2024/02/13 11:47:28;;;;;;;1.97;1.40;;;9.60;99.90;;;;;;5055922;28;20487;-64
2024/02/13 11:49:56;;;;;;;6.43;2.00;;;9.40;99.90;;;;;;5055651;28;20446;-64
2024/02/13 11:52:23;;;;;;;3.17;1.30;;;9.40;99.90;;;;;;5055792;28;20481;-63
2024/02/13 11:54:51;;;;;;;1.60;1.30;;;9.50;99.90;;;;;;5055756;28;20569;-62
2024/02/13 11:57:20;;;;;;;5.20;1.50;;;9.50;99.90;;;;;;5055770;28;20533;-62
2024/02/13 11:59:57;;;;;;;2.23;1.70;;;9.40;99.90;;;;;;5055735;28;20449;-62
2024/02/13 12:02:24;;;;;;;10.37;1.93;;;9.40;99.90;;;;;;5055273;28;20473;-61
2024/02/13 12:04:51;;;;;;;2.13;1.60;;;9.40;99.90;;;;;;5055566;28;20499;-61
2024/02/13 12:07:19;;;;;;;4.73;2.03;;;9.40;99.90;;;;;;5055595;28;20557;-63
2024/02/13 12:09:50;;;;;;;6.23;1.60;;;9.50;99.90;;;;;;5055383;28;20438;-63
2024/02/13 12:12:17;;;;;;;3.53;1.80;;;9.60;99.90;;;;;;5055567;28;20482;-63
2024/02/13 12:14:44;;;;;;;3.60;1.93;;;9.70;99.90;;;;;;5054202;28;21044;-64
2024/02/13 12:17:14;;;;;;;2.10;1.67;;;9.70;99.90;;;;;;5055423;28;20561;-64
2024/02/13 12:19:41;;;;;;;9.80;1.57;;;9.80;99.90;;;;;;5055798;28;20436;-63
2024/02/13 12:22:09;;;;;;;4.97;2.13;;;9.80;99.90;;;;;;5055034;28;20558;-63
2024/02/13 12:24:39;;;;;;;3.90;1.83;;;9.70;99.90;;;;;;5054993;28;20506;-63
2024/02/13 12:27:09;;;;;;;2.20;1.33;;;9.60;99.90;;;;;;5055173;28;20469;-63
2024/02/13 12:29:38;;;;;;;3.87;2.10;;;9.60;99.90;;;;;;5054964;28;20533;-62
2024/02/13 12:32:08;;;;;;;3.70;1.33;;;9.60;99.90;;;;;;5054908;28;20472;-64
2024/02/13 12:34:39;;;;;;;2.50;1.80;;;9.50;99.90;;;;;;5054882;28;20475;-64
2024/02/13 12:37:08;;;;;;;5.00;1.67;;;9.50;99.90;;;;;;5054900;28;20517;-63
2024/02/13 12:39:36;;;;;;;4.33;1.60;;;9.40;99.90;;;;;;5054821;28;20512;-62
2024/02/13 12:42:10;;;;;;;6.80;2.30;;;9.50;99.90;;;;;;5054853;28;20778;-63
2024/02/13 12:44:38;;;;;;;4.20;1.50;;;9.50;99.90;;;;;;5055083;28;20918;-63
2024/02/13 12:47:12;;;;;;;4.20;1.47;;;9.50;99.90;;;;;;5054907;28;20536;-62
2024/02/13 12:49:42;;;;;;;1.83;1.60;;;9.60;99.90;;;;;;5054741;28;20426;-61
2024/02/13 12:52:11;;;;;;;1.77;1.60;;;9.70;99.90;;;;;;5054672;28;20434;-62
2024/02/13 12:54:38;;;;;;;2.33;1.60;;;9.70;99.90;;;;;;5054494;28;20470;-63
2024/02/13 12:57:05;;;;;;;4.10;1.90;;;9.80;99.90;;;;;;5054828;28;20443;-62
2024/02/13 12:59:38;;;;;;;4.53;1.67;;;9.90;99.90;;;;;;5054474;28;20532;-62
2024/02/13 13:02:08;;;;;;;2.33;1.40;;;9.90;99.90;;;;;;5054478;28;20443;-64